sensor_id;sensor_type;location;lat;lon;timestamp;temperature;humidity
18450;DHT22;9354;50.194;7.690;2023-05-03T00:00:43;7.60;99.90
18450;DHT22;9354;50.194;7.690;2023-05-03T00:03:10;7.50;99.90
18450;DHT22;9354;50.194;7.690;2023-05-03T00:05:38;7.50;99.90
18450;DHT22;9354;50.194;7.690;2023-05-03T00:08:06;7.40;99.90
18450;DHT22;9354;50.194;7.690;2023-05-03T00:10:33;7.40;99.90
18450;DHT22;9354;50.194;7.690;2023-05-03T00:13:01;7.40;99.90
18450;DHT22;9354;50.194;7.690;2023-05-03T00:15:29;7.40;99.90
18450;DHT22;9354;50.194;7.690;2023-05-03T00:17:57;7.40;99.90
18450;DHT22;9354;50.194;7.690;2023-05-03T00:20:24;7.40;99.90
18450;DHT22;9354;50.194;7.690;2023-05-03T00:22:52;7.30;99.90
18450;DHT22;9354;50.194;7.690;2023-05-03T00:25:19;7.30;99.90
18450;DHT22;9354;50.194;7.690;2023-05-03T00:27:46;7.30;99.90
18450;DHT22;9354;50.194;7.690;2023-05-03T00:30:14;7.20;99.90
18450;DHT22;9354;50.194;7.690;2023-05-03T00:32:45;7.20;99.90
18450;DHT22;9354;50.194;7.690;2023-05-03T00:35:12;7.10;99.90
18450;DHT22;9354;50.194;7.690;2023-05-03T00:37:40;7.40;99.90
18450;DHT22;9354;50.194;7.690;2023-05-03T00:40:08;7.10;99.90
18450;DHT22;9354;50.194;7.690;2023-05-03T00:42:35;7.00;99.90
18450;DHT22;9354;50.194;7.690;2023-05-03T00:45:03;7.00;99.90
18450;DHT22;9354;50.194;7.690;2023-05-03T00:47:31;7.00;99.90
18450;DHT22;9354;50.194;7.690;2023-05-03T00:50:00;7.00;99.90
18450;DHT22;9354;50.194;7.690;2023-05-03T00:52:28;7.00;99.90
18450;DHT22;9354;50.194;7.690;2023-05-03T00:54:56;7.10;99.90
18450;DHT22;9354;50.194;7.690;2023-05-03T00:57:25;7.00;99.90
18450;DHT22;9354;50.194;7.690;2023-05-03T00:59:55;7.10;99.90
18450;DHT22;9354;50.194;7.690;2023-05-03T01:02:23;7.00;99.90
18450;DHT22;9354;50.194;7.690;2023-05-03T01:04:51;7.00;99.90
18450;DHT22;9354;50.194;7.690;2023-05-03T01:07:29;7.00;99.90
18450;DHT22;9354;50.194;7.690;2023-05-03T01:10:09;7.00;99.90
18450;DHT22;9354;50.194;7.690;2023-05-03T01:12:43;6.90;99.90
18450;DHT22;9354;50.194;7.690;2023-05-03T01:15:18;6.80;99.90
18450;DHT22;9354;50.194;7.690;2023-05-03T01:17:49;6.80;99.90
18450;DHT22;9354;50.194;7.690;2023-05-03T01:20:21;6.70;99.90
18450;DHT22;9354;50.194;7.690;2023-05-03T01:22:59;6.60;99.90
18450;DHT22;9354;50.194;7.690;2023-05-03T01:25:28;6.60;99.90
18450;DHT22;9354;50.194;7.690;2023-05-03T01:27:56;6.60;99.90
18450;DHT22;9354;50.194;7.690;2023-05-03T01:30:26;6.50;99.90
18450;DHT22;9354;50.194;7.690;2023-05-03T01:32:58;6.50;99.90
18450;DHT22;9354;50.194;7.690;2023-05-03T01:35:32;6.50;99.90
18450;DHT22;9354;50.194;7.690;2023-05-03T01:38:02;6.50;99.90
18450;DHT22;9354;50.194;7.690;2023-05-03T01:40:44;6.50;99.90
18450;DHT22;9354;50.194;7.690;2023-05-03T01:43:15;6.50;99.90
18450;DHT22;9354;50.194;7.690;2023-05-03T01:45:43;6.40;99.90
18450;DHT22;9354;50.194;7.690;2023-05-03T01:48:13;6.40;99.90
18450;DHT22;9354;50.194;7.690;2023-05-03T01:50:40;6.30;99.90
18450;DHT22;9354;50.194;7.690;2023-05-03T01:53:08;6.20;99.90
18450;DHT22;9354;50.194;7.690;2023-05-03T01:55:37;6.30;99.90
18450;DHT22;9354;50.194;7.690;2023-05-03T01:58:04;6.20;99.90
18450;DHT22;9354;50.194;7.690;2023-05-03T02:00:32;6.20;99.90
18450;DHT22;9354;50.194;7.690;2023-05-03T02:02:59;6.20;99.90
18450;DHT22;9354;50.194;7.690;2023-05-03T02:05:27;6.20;99.90
18450;DHT22;9354;50.194;7.690;2023-05-03T02:07:54;6.20;99.90
18450;DHT22;9354;50.194;7.690;2023-05-03T02:10:21;6.20;99.90
18450;DHT22;9354;50.194;7.690;2023-05-03T02:12:51;6.20;99.90
18450;DHT22;9354;50.194;7.690;2023-05-03T02:15:19;6.20;99.90
18450;DHT22;9354;50.194;7.690;2023-05-03T02:17:46;6.20;99.90
18450;DHT22;9354;50.194;7.690;2023-05-03T02:20:14;6.10;99.90
18450;DHT22;9354;50.194;7.690;2023-05-03T02:22:41;6.10;99.90
18450;DHT22;9354;50.194;7.690;2023-05-03T02:25:09;6.10;99.90
18450;DHT22;9354;50.194;7.690;2023-05-03T02:27:36;6.10;99.90
18450;DHT22;9354;50.194;7.690;2023-05-03T02:30:06;6.10;99.90
18450;DHT22;9354;50.194;7.690;2023-05-03T02:32:34;6.10;99.90
18450;DHT22;9354;50.194;7.690;2023-05-03T02:35:01;6.10;99.90
18450;DHT22;9354;50.194;7.690;2023-05-03T02:37:29;6.00;99.90
18450;DHT22;9354;50.194;7.690;2023-05-03T02:39:56;6.00;99.90
18450;DHT22;9354;50.194;7.690;2023-05-03T02:42:23;6.00;99.90
18450;DHT22;9354;50.194;7.690;2023-05-03T02:44:51;6.00;99.90
18450;DHT22;9354;50.194;7.690;2023-05-03T02:47:20;6.00;99.90
18450;DHT22;9354;50.194;7.690;2023-05-03T02:49:47;6.00;99.90
18450;DHT22;9354;50.194;7.690;2023-05-03T02:52:14;5.90;99.90
18450;DHT22;9354;50.194;7.690;2023-05-03T02:54:42;5.90;99.90
18450;DHT22;9354;50.194;7.690;2023-05-03T02:57:09;5.90;99.90
18450;DHT22;9354;50.194;7.690;2023-05-03T02:59:37;5.90;99.90
18450;DHT22;9354;50.194;7.690;2023-05-03T03:02:05;5.90;99.90
18450;DHT22;9354;50.194;7.690;2023-05-03T03:04:33;6.00;99.90
18450;DHT22;9354;50.194;7.690;2023-05-03T03:07:01;6.00;99.90
18450;DHT22;9354;50.194;7.690;2023-05-03T03:09:28;6.00;99.90
18450;DHT22;9354;50.194;7.690;2023-05-03T03:11:56;6.00;99.90
18450;DHT22;9354;50.194;7.690;2023-05-03T03:14:23;5.90;99.90
18450;DHT22;9354;50.194;7.690;2023-05-03T03:16:51;5.90;99.90
18450;DHT22;9354;50.194;7.690;2023-05-03T03:19:18;5.80;99.90
18450;DHT22;9354;50.194;7.690;2023-05-03T03:21:47;5.80;99.90
18450;DHT22;9354;50.194;7.690;2023-05-03T03:24:14;5.70;99.90
18450;DHT22;9354;50.194;7.690;2023-05-03T03:26:42;5.70;99.90
18450;DHT22;9354;50.194;7.690;2023-05-03T03:29:09;5.70;99.90
18450;DHT22;9354;50.194;7.690;2023-05-03T03:31:36;5.60;99.90
18450;DHT22;9354;50.194;7.690;2023-05-03T03:34:04;5.70;99.90
18450;DHT22;9354;50.194;7.690;2023-05-03T03:36:31;5.70;99.90
18450;DHT22;9354;50.194;7.690;2023-05-03T03:39:00;5.70;99.90
18450;DHT22;9354;50.194;7.690;2023-05-03T03:41:30;5.60;99.90
18450;DHT22;9354;50.194;7.690;2023-05-03T03:43:57;5.60;99.90
18450;DHT22;9354;50.194;7.690;2023-05-03T03:46:24;5.60;99.90
18450;DHT22;9354;50.194;7.690;2023-05-03T03:48:52;5.60;99.90
18450;DHT22;9354;50.194;7.690;2023-05-03T03:51:19;5.50;99.90
18450;DHT22;9354;50.194;7.690;2023-05-03T03:53:46;5.50;99.90
18450;DHT22;9354;50.194;7.690;2023-05-03T03:56:15;5.50;99.90
18450;DHT22;9354;50.194;7.690;2023-05-03T03:58:43;5.50;99.90
18450;DHT22;9354;50.194;7.690;2023-05-03T04:01:10;5.50;99.90
18450;DHT22;9354;50.194;7.690;2023-05-03T04:03:38;5.50;99.90
18450;DHT22;9354;50.194;7.690;2023-05-03T04:06:05;5.40;99.90
18450;DHT22;9354;50.194;7.690;2023-05-03T04:08:33;5.30;99.90
18450;DHT22;9354;50.194;7.690;2023-05-03T04:11:01;5.30;99.90
18450;DHT22;9354;50.194;7.690;2023-05-03T04:13:30;5.30;99.90
18450;DHT22;9354;50.194;7.690;2023-05-03T04:15:58;5.20;99.90
18450;DHT22;9354;50.194;7.690;2023-05-03T04:18:26;5.30;99.90
18450;DHT22;9354;50.194;7.690;2023-05-03T04:20:53;5.20;99.90
18450;DHT22;9354;50.194;7.690;2023-05-03T04:23:21;5.30;99.90
18450;DHT22;9354;50.194;7.690;2023-05-03T04:25:48;5.30;99.90
18450;DHT22;9354;50.194;7.690;2023-05-03T04:28:15;5.40;99.90
18450;DHT22;9354;50.194;7.690;2023-05-03T04:30:44;5.40;99.90
18450;DHT22;9354;50.194;7.690;2023-05-03T04:33:12;5.50;99.90
18450;DHT22;9354;50.194;7.690;2023-05-03T04:35:39;5.50;99.90
18450;DHT22;9354;50.194;7.690;2023-05-03T04:38:07;5.50;99.90
18450;DHT22;9354;50.194;7.690;2023-05-03T04:40:36;5.60;99.90
18450;DHT22;9354;50.194;7.690;2023-05-03T04:43:03;5.60;99.90
18450;DHT22;9354;50.194;7.690;2023-05-03T04:45:31;5.70;99.90
18450;DHT22;9354;50.194;7.690;2023-05-03T04:48:00;5.70;99.90
18450;DHT22;9354;50.194;7.690;2023-05-03T04:50:30;5.80;99.90
18450;DHT22;9354;50.194;7.690;2023-05-03T04:52:57;5.80;99.90
18450;DHT22;9354;50.194;7.690;2023-05-03T04:55:25;5.90;99.90
18450;DHT22;9354;50.194;7.690;2023-05-03T04:57:52;5.90;99.90
18450;DHT22;9354;50.194;7.690;2023-05-03T05:00:20;5.90;99.90
18450;DHT22;9354;50.194;7.690;2023-05-03T05:02:48;6.10;99.90
18450;DHT22;9354;50.194;7.690;2023-05-03T05:05:17;6.10;99.90
18450;DHT22;9354;50.194;7.690;2023-05-03T05:07:45;6.20;99.90
18450;DHT22;9354;50.194;7.690;2023-05-03T05:10:12;6.20;99.90
18450;DHT22;9354;50.194;7.690;2023-05-03T05:12:40;6.20;99.90
18450;DHT22;9354;50.194;7.690;2023-05-03T05:15:08;6.20;99.90
18450;DHT22;9354;50.194;7.690;2023-05-03T05:17:36;6.30;99.90
18450;DHT22;9354;50.194;7.690;2023-05-03T05:20:04;6.30;99.90
18450;DHT22;9354;50.194;7.690;2023-05-03T05:22:33;6.40;99.90
18450;DHT22;9354;50.194;7.690;2023-05-03T05:25:01;6.30;99.90
18450;DHT22;9354;50.194;7.690;2023-05-03T05:27:28;6.40;99.90
18450;DHT22;9354;50.194;7.690;2023-05-03T05:29:56;6.40;99.90
18450;DHT22;9354;50.194;7.690;2023-05-03T05:32:23;6.40;99.90
18450;DHT22;9354;50.194;7.690;2023-05-03T05:34:51;6.50;99.90
18450;DHT22;9354;50.194;7.690;2023-05-03T05:37:20;6.60;99.90
18450;DHT22;9354;50.194;7.690;2023-05-03T05:39:49;6.60;99.90
18450;DHT22;9354;50.194;7.690;2023-05-03T05:42:17;6.70;99.90
18450;DHT22;9354;50.194;7.690;2023-05-03T05:44:44;6.70;99.90
18450;DHT22;9354;50.194;7.690;2023-05-03T05:47:12;6.70;99.90
18450;DHT22;9354;50.194;7.690;2023-05-03T05:49:39;6.70;99.90
18450;DHT22;9354;50.194;7.690;2023-05-03T05:52:06;6.80;99.90
18450;DHT22;9354;50.194;7.690;2023-05-03T05:54:34;6.90;99.90
18450;DHT22;9354;50.194;7.690;2023-05-03T05:57:03;6.90;99.90
18450;DHT22;9354;50.194;7.690;2023-05-03T05:59:30;7.00;99.90
18450;DHT22;9354;50.194;7.690;2023-05-03T06:01:57;7.00;99.90
18450;DHT22;9354;50.194;7.690;2023-05-03T06:04:25;7.10;99.90
18450;DHT22;9354;50.194;7.690;2023-05-03T06:06:53;7.20;99.90
18450;DHT22;9354;50.194;7.690;2023-05-03T06:09:21;7.30;99.90
18450;DHT22;9354;50.194;7.690;2023-05-03T06:11:48;7.30;99.90
18450;DHT22;9354;50.194;7.690;2023-05-03T06:14:18;7.40;99.90
18450;DHT22;9354;50.194;7.690;2023-05-03T06:16:46;7.40;99.90
18450;DHT22;9354;50.194;7.690;2023-05-03T06:19:13;7.50;99.90
18450;DHT22;9354;50.194;7.690;2023-05-03T06:21:41;7.50;99.90
18450;DHT22;9354;50.194;7.690;2023-05-03T06:24:08;7.40;99.90
18450;DHT22;9354;50.194;7.690;2023-05-03T06:26:36;7.40;99.90
18450;DHT22;9354;50.194;7.690;2023-05-03T06:29:03;7.50;99.90
18450;DHT22;9354;50.194;7.690;2023-05-03T06:31:32;7.50;99.90
18450;DHT22;9354;50.194;7.690;2023-05-03T06:33:59;7.60;99.90
18450;DHT22;9354;50.194;7.690;2023-05-03T06:36:27;7.70;99.90
18450;DHT22;9354;50.194;7.690;2023-05-03T06:38:55;7.70;99.90
18450;DHT22;9354;50.194;7.690;2023-05-03T06:41:22;7.70;99.90
18450;DHT22;9354;50.194;7.690;2023-05-03T06:43:50;7.90;99.90
18450;DHT22;9354;50.194;7.690;2023-05-03T06:46:17;7.90;99.90
18450;DHT22;9354;50.194;7.690;2023-05-03T06:48:46;8.00;99.90
18450;DHT22;9354;50.194;7.690;2023-05-03T06:51:13;8.10;99.90
18450;DHT22;9354;50.194;7.690;2023-05-03T06:53:40;8.20;99.90
18450;DHT22;9354;50.194;7.690;2023-05-03T06:56:08;8.30;99.90
18450;DHT22;9354;50.194;7.690;2023-05-03T06:58:35;8.30;99.90
18450;DHT22;9354;50.194;7.690;2023-05-03T07:01:03;8.40;99.90
18450;DHT22;9354;50.194;7.690;2023-05-03T07:03:30;8.50;99.90
18450;DHT22;9354;50.194;7.690;2023-05-03T07:05:59;8.60;99.90
18450;DHT22;9354;50.194;7.690;2023-05-03T07:08:27;8.80;99.90
18450;DHT22;9354;50.194;7.690;2023-05-03T07:10:54;8.70;99.90
18450;DHT22;9354;50.194;7.690;2023-05-03T07:13:22;8.80;99.90
18450;DHT22;9354;50.194;7.690;2023-05-03T07:15:50;8.70;99.90
18450;DHT22;9354;50.194;7.690;2023-05-03T07:18:18;8.70;99.90
18450;DHT22;9354;50.194;7.690;2023-05-03T07:20:45;8.80;99.90
18450;DHT22;9354;50.194;7.690;2023-05-03T07:23:15;8.80;99.90
18450;DHT22;9354;50.194;7.690;2023-05-03T07:25:42;8.90;99.90
18450;DHT22;9354;50.194;7.690;2023-05-03T07:28:10;9.00;99.90
18450;DHT22;9354;50.194;7.690;2023-05-03T07:30:38;9.00;99.90
18450;DHT22;9354;50.194;7.690;2023-05-03T07:33:06;9.10;99.90
18450;DHT22;9354;50.194;7.690;2023-05-03T07:35:33;9.30;99.90
18450;DHT22;9354;50.194;7.690;2023-05-03T07:38:00;9.50;99.90
18450;DHT22;9354;50.194;7.690;2023-05-03T07:40:29;9.60;99.90
18450;DHT22;9354;50.194;7.690;2023-05-03T07:42:58;9.80;99.90
18450;DHT22;9354;50.194;7.690;2023-05-03T07:45:25;9.90;99.90
18450;DHT22;9354;50.194;7.690;2023-05-03T07:47:53;10.10;99.90
18450;DHT22;9354;50.194;7.690;2023-05-03T07:50:22;10.30;99.90
18450;DHT22;9354;50.194;7.690;2023-05-03T07:52:49;10.50;99.90
18450;DHT22;9354;50.194;7.690;2023-05-03T07:55:17;10.70;99.90
18450;DHT22;9354;50.194;7.690;2023-05-03T07:57:46;10.90;99.90
18450;DHT22;9354;50.194;7.690;2023-05-03T08:00:14;11.00;99.90
18450;DHT22;9354;50.194;7.690;2023-05-03T08:02:42;11.10;99.90
18450;DHT22;9354;50.194;7.690;2023-05-03T08:05:10;11.30;99.90
18450;DHT22;9354;50.194;7.690;2023-05-03T08:07:39;11.50;99.90
18450;DHT22;9354;50.194;7.690;2023-05-03T08:10:07;11.70;99.90
18450;DHT22;9354;50.194;7.690;2023-05-03T08:12:35;11.90;99.90
18450;DHT22;9354;50.194;7.690;2023-05-03T08:15:05;12.10;99.90
18450;DHT22;9354;50.194;7.690;2023-05-03T08:17:39;12.20;99.90
18450;DHT22;9354;50.194;7.690;2023-05-03T08:20:07;12.50;99.90
18450;DHT22;9354;50.194;7.690;2023-05-03T08:22:36;12.70;99.90
18450;DHT22;9354;50.194;7.690;2023-05-03T08:25:05;12.90;99.90
18450;DHT22;9354;50.194;7.690;2023-05-03T08:27:33;13.00;99.90
18450;DHT22;9354;50.194;7.690;2023-05-03T08:30:00;13.10;99.90
18450;DHT22;9354;50.194;7.690;2023-05-03T08:32:29;13.20;99.90
18450;DHT22;9354;50.194;7.690;2023-05-03T08:34:57;13.40;99.90
18450;DHT22;9354;50.194;7.690;2023-05-03T08:37:24;13.60;99.90
18450;DHT22;9354;50.194;7.690;2023-05-03T08:39:52;13.70;99.90
18450;DHT22;9354;50.194;7.690;2023-05-03T08:42:20;13.80;99.90
18450;DHT22;9354;50.194;7.690;2023-05-03T08:44:47;13.90;99.90
18450;DHT22;9354;50.194;7.690;2023-05-03T08:47:15;14.20;99.90
18450;DHT22;9354;50.194;7.690;2023-05-03T08:49:44;14.40;99.90
18450;DHT22;9354;50.194;7.690;2023-05-03T08:52:13;14.60;99.90
18450;DHT22;9354;50.194;7.690;2023-05-03T08:54:43;14.70;99.90
18450;DHT22;9354;50.194;7.690;2023-05-03T08:57:13;14.70;99.90
18450;DHT22;9354;50.194;7.690;2023-05-03T08:59:47;14.70;99.90
18450;DHT22;9354;50.194;7.690;2023-05-03T09:02:16;14.80;99.90
18450;DHT22;9354;50.194;7.690;2023-05-03T09:04:45;14.90;99.90
18450;DHT22;9354;50.194;7.690;2023-05-03T09:07:15;14.90;99.90
18450;DHT22;9354;50.194;7.690;2023-05-03T09:09:42;15.00;99.90
18450;DHT22;9354;50.194;7.690;2023-05-03T09:12:10;15.00;99.90
18450;DHT22;9354;50.194;7.690;2023-05-03T09:14:44;15.00;99.90
18450;DHT22;9354;50.194;7.690;2023-05-03T09:17:15;15.10;99.90
18450;DHT22;9354;50.194;7.690;2023-05-03T09:19:52;15.30;99.90
18450;DHT22;9354;50.194;7.690;2023-05-03T09:22:20;15.50;99.90
18450;DHT22;9354;50.194;7.690;2023-05-03T09:24:51;15.60;99.90
18450;DHT22;9354;50.194;7.690;2023-05-03T09:27:19;15.70;99.90
18450;DHT22;9354;50.194;7.690;2023-05-03T09:29:48;15.80;99.90
18450;DHT22;9354;50.194;7.690;2023-05-03T09:32:16;16.00;99.90
18450;DHT22;9354;50.194;7.690;2023-05-03T09:34:44;16.20;99.90
18450;DHT22;9354;50.194;7.690;2023-05-03T09:37:13;16.40;99.90
18450;DHT22;9354;50.194;7.690;2023-05-03T09:39:41;16.40;99.90
18450;DHT22;9354;50.194;7.690;2023-05-03T09:42:13;16.50;99.90
18450;DHT22;9354;50.194;7.690;2023-05-03T09:44:42;16.50;99.90
18450;DHT22;9354;50.194;7.690;2023-05-03T09:47:10;16.50;99.90
18450;DHT22;9354;50.194;7.690;2023-05-03T09:49:38;16.60;99.90
18450;DHT22;9354;50.194;7.690;2023-05-03T09:52:07;16.70;99.90
18450;DHT22;9354;50.194;7.690;2023-05-03T09:54:36;16.80;99.90
18450;DHT22;9354;50.194;7.690;2023-05-03T09:57:04;16.70;99.90
18450;DHT22;9354;50.194;7.690;2023-05-03T09:59:32;16.80;99.90
18450;DHT22;9354;50.194;7.690;2023-05-03T10:02:01;17.00;99.90
18450;DHT22;9354;50.194;7.690;2023-05-03T10:04:38;17.10;99.90
18450;DHT22;9354;50.194;7.690;2023-05-03T10:07:10;17.10;99.90
18450;DHT22;9354;50.194;7.690;2023-05-03T10:09:42;17.20;99.90
18450;DHT22;9354;50.194;7.690;2023-05-03T10:12:11;17.40;99.90
18450;DHT22;9354;50.194;7.690;2023-05-03T10:14:43;17.50;99.90
18450;DHT22;9354;50.194;7.690;2023-05-03T10:17:15;17.60;99.90
18450;DHT22;9354;50.194;7.690;2023-05-03T10:19:51;17.80;99.90
18450;DHT22;9354;50.194;7.690;2023-05-03T10:22:18;17.80;99.90
18450;DHT22;9354;50.194;7.690;2023-05-03T10:25:09;17.80;99.90
18450;DHT22;9354;50.194;7.690;2023-05-03T10:27:41;17.90;99.90
18450;DHT22;9354;50.194;7.690;2023-05-03T10:30:28;18.10;99.90
18450;DHT22;9354;50.194;7.690;2023-05-03T10:32:58;18.10;99.90
18450;DHT22;9354;50.194;7.690;2023-05-03T10:35:26;18.20;99.90
18450;DHT22;9354;50.194;7.690;2023-05-03T10:37:54;18.30;99.90
18450;DHT22;9354;50.194;7.690;2023-05-03T10:40:40;18.50;99.90
18450;DHT22;9354;50.194;7.690;2023-05-03T10:43:44;18.60;99.90
18450;DHT22;9354;50.194;7.690;2023-05-03T10:46:32;18.60;99.90
18450;DHT22;9354;50.194;7.690;2023-05-03T10:49:20;18.70;99.90
18450;DHT22;9354;50.194;7.690;2023-05-03T10:51:48;18.80;99.90
18450;DHT22;9354;50.194;7.690;2023-05-03T10:54:15;18.90;99.90
18450;DHT22;9354;50.194;7.690;2023-05-03T10:56:52;18.90;99.90
18450;DHT22;9354;50.194;7.690;2023-05-03T10:59:22;18.90;99.90
18450;DHT22;9354;50.194;7.690;2023-05-03T11:01:50;18.90;99.90
18450;DHT22;9354;50.194;7.690;2023-05-03T11:04:32;19.00;99.90
18450;DHT22;9354;50.194;7.690;2023-05-03T11:07:00;19.20;99.90
18450;DHT22;9354;50.194;7.690;2023-05-03T11:09:31;19.40;99.90
18450;DHT22;9354;50.194;7.690;2023-05-03T11:12:02;19.40;99.90
18450;DHT22;9354;50.194;7.690;2023-05-03T11:14:31;19.50;99.90
18450;DHT22;9354;50.194;7.690;2023-05-03T11:16:58;19.50;99.90
18450;DHT22;9354;50.194;7.690;2023-05-03T11:19:27;19.50;99.90
18450;DHT22;9354;50.194;7.690;2023-05-03T11:21:54;19.60;99.90
18450;DHT22;9354;50.194;7.690;2023-05-03T11:24:23;19.70;99.90
18450;DHT22;9354;50.194;7.690;2023-05-03T11:26:50;19.70;99.90
18450;DHT22;9354;50.194;7.690;2023-05-03T11:29:18;19.70;99.90
18450;DHT22;9354;50.194;7.690;2023-05-03T11:31:48;19.80;99.90
18450;DHT22;9354;50.194;7.690;2023-05-03T11:34:16;20.00;99.90
18450;DHT22;9354;50.194;7.690;2023-05-03T11:36:43;20.20;99.90
18450;DHT22;9354;50.194;7.690;2023-05-03T11:39:12;20.20;99.90
18450;DHT22;9354;50.194;7.690;2023-05-03T11:41:40;20.30;99.90
18450;DHT22;9354;50.194;7.690;2023-05-03T11:44:08;20.30;99.90
18450;DHT22;9354;50.194;7.690;2023-05-03T11:46:36;20.30;99.90
18450;DHT22;9354;50.194;7.690;2023-05-03T11:49:06;20.20;99.90
18450;DHT22;9354;50.194;7.690;2023-05-03T11:51:34;20.20;99.90
18450;DHT22;9354;50.194;7.690;2023-05-03T11:54:01;20.10;99.90
18450;DHT22;9354;50.194;7.690;2023-05-03T11:56:30;19.90;99.90
18450;DHT22;9354;50.194;7.690;2023-05-03T11:58:58;19.90;99.90
18450;DHT22;9354;50.194;7.690;2023-05-03T12:01:27;19.90;99.90
18450;DHT22;9354;50.194;7.690;2023-05-03T12:03:56;19.90;99.90
18450;DHT22;9354;50.194;7.690;2023-05-03T12:06:25;20.10;99.90
18450;DHT22;9354;50.194;7.690;2023-05-03T12:08:53;20.10;99.90
18450;DHT22;9354;50.194;7.690;2023-05-03T12:11:22;20.20;99.90
18450;DHT22;9354;50.194;7.690;2023-05-03T12:13:56;20.20;99.90
18450;DHT22;9354;50.194;7.690;2023-05-03T12:16:24;20.20;99.90
18450;DHT22;9354;50.194;7.690;2023-05-03T12:18:54;20.00;99.90
18450;DHT22;9354;50.194;7.690;2023-05-03T12:21:25;20.00;99.90
18450;DHT22;9354;50.194;7.690;2023-05-03T12:24:08;20.00;99.90
18450;DHT22;9354;50.194;7.690;2023-05-03T12:26:36;19.90;99.90
18450;DHT22;9354;50.194;7.690;2023-05-03T12:29:03;19.90;99.90
18450;DHT22;9354;50.194;7.690;2023-05-03T12:31:31;20.00;99.90
18450;DHT22;9354;50.194;7.690;2023-05-03T12:33:58;20.20;99.90
18450;DHT22;9354;50.194;7.690;2023-05-03T12:36:27;20.30;99.90
18450;DHT22;9354;50.194;7.690;2023-05-03T12:38:57;20.30;99.90
18450;DHT22;9354;50.194;7.690;2023-05-03T12:41:24;20.40;99.90
18450;DHT22;9354;50.194;7.690;2023-05-03T12:43:54;20.40;99.90
18450;DHT22;9354;50.194;7.690;2023-05-03T12:46:24;20.40;99.90
18450;DHT22;9354;50.194;7.690;2023-05-03T12:48:53;20.40;99.90
18450;DHT22;9354;50.194;7.690;2023-05-03T12:51:20;20.50;99.90
18450;DHT22;9354;50.194;7.690;2023-05-03T12:53:49;20.60;99.90
18450;DHT22;9354;50.194;7.690;2023-05-03T12:56:17;20.70;99.90
18450;DHT22;9354;50.194;7.690;2023-05-03T12:58:44;20.70;99.90
18450;DHT22;9354;50.194;7.690;2023-05-03T13:01:15;20.70;99.90
18450;DHT22;9354;50.194;7.690;2023-05-03T13:03:44;20.60;99.90
18450;DHT22;9354;50.194;7.690;2023-05-03T13:06:12;20.70;99.90
18450;DHT22;9354;50.194;7.690;2023-05-03T13:08:39;20.70;99.90
18450;DHT22;9354;50.194;7.690;2023-05-03T13:11:08;20.60;99.90
18450;DHT22;9354;50.194;7.690;2023-05-03T13:13:36;20.70;99.90
18450;DHT22;9354;50.194;7.690;2023-05-03T13:16:04;20.80;99.90
18450;DHT22;9354;50.194;7.690;2023-05-03T13:18:32;20.90;99.90
18450;DHT22;9354;50.194;7.690;2023-05-03T13:21:00;20.90;99.90
18450;DHT22;9354;50.194;7.690;2023-05-03T13:23:27;20.80;99.90
18450;DHT22;9354;50.194;7.690;2023-05-03T13:25:55;20.80;99.90
18450;DHT22;9354;50.194;7.690;2023-05-03T13:28:25;20.80;99.90
18450;DHT22;9354;50.194;7.690;2023-05-03T13:30:53;20.80;99.90
18450;DHT22;9354;50.194;7.690;2023-05-03T13:33:20;20.80;99.90
18450;DHT22;9354;50.194;7.690;2023-05-03T13:35:47;20.80;99.90
18450;DHT22;9354;50.194;7.690;2023-05-03T13:38:15;20.70;99.90
18450;DHT22;9354;50.194;7.690;2023-05-03T13:40:43;20.60;99.90
18450;DHT22;9354;50.194;7.690;2023-05-03T13:43:10;20.70;99.90
18450;DHT22;9354;50.194;7.690;2023-05-03T13:45:39;20.70;99.90
18450;DHT22;9354;50.194;7.690;2023-05-03T13:48:06;20.80;99.90
18450;DHT22;9354;50.194;7.690;2023-05-03T13:50:34;20.70;99.90
18450;DHT22;9354;50.194;7.690;2023-05-03T13:53:01;20.60;99.90
18450;DHT22;9354;50.194;7.690;2023-05-03T13:55:29;20.50;99.90
18450;DHT22;9354;50.194;7.690;2023-05-03T13:57:56;20.60;99.90
18450;DHT22;9354;50.194;7.690;2023-05-03T14:00:24;20.70;99.90
18450;DHT22;9354;50.194;7.690;2023-05-03T14:02:53;20.60;99.90
18450;DHT22;9354;50.194;7.690;2023-05-03T14:05:22;20.60;99.90
18450;DHT22;9354;50.194;7.690;2023-05-03T14:07:49;20.60;99.90
18450;DHT22;9354;50.194;7.690;2023-05-03T14:10:16;20.50;99.90
18450;DHT22;9354;50.194;7.690;2023-05-03T14:12:44;20.50;99.90
18450;DHT22;9354;50.194;7.690;2023-05-03T14:15:11;20.50;99.90
18450;DHT22;9354;50.194;7.690;2023-05-03T14:17:40;20.50;99.90
18450;DHT22;9354;50.194;7.690;2023-05-03T14:20:10;20.60;99.90
18450;DHT22;9354;50.194;7.690;2023-05-03T14:22:38;20.50;99.90
18450;DHT22;9354;50.194;7.690;2023-05-03T14:25:06;20.50;99.90
18450;DHT22;9354;50.194;7.690;2023-05-03T14:27:34;20.40;99.90
18450;DHT22;9354;50.194;7.690;2023-05-03T14:30:02;20.50;99.90
18450;DHT22;9354;50.194;7.690;2023-05-03T14:32:29;20.60;99.90
18450;DHT22;9354;50.194;7.690;2023-05-03T14:34:57;20.70;99.90
18450;DHT22;9354;50.194;7.690;2023-05-03T14:37:26;20.70;99.90
18450;DHT22;9354;50.194;7.690;2023-05-03T14:39:53;20.70;99.90
18450;DHT22;9354;50.194;7.690;2023-05-03T14:42:21;20.60;99.90
18450;DHT22;9354;50.194;7.690;2023-05-03T14:44:48;20.60;99.90
18450;DHT22;9354;50.194;7.690;2023-05-03T14:47:16;20.60;99.90
18450;DHT22;9354;50.194;7.690;2023-05-03T14:49:43;20.70;99.90
18450;DHT22;9354;50.194;7.690;2023-05-03T14:52:11;20.70;99.90
18450;DHT22;9354;50.194;7.690;2023-05-03T14:54:40;20.70;99.90
18450;DHT22;9354;50.194;7.690;2023-05-03T14:57:07;20.60;99.90
18450;DHT22;9354;50.194;7.690;2023-05-03T14:59:34;20.50;99.90
18450;DHT22;9354;50.194;7.690;2023-05-03T15:02:02;20.30;99.90
18450;DHT22;9354;50.194;7.690;2023-05-03T15:04:29;20.20;99.90
18450;DHT22;9354;50.194;7.690;2023-05-03T15:06:59;20.10;99.90
18450;DHT22;9354;50.194;7.690;2023-05-03T15:09:29;20.20;99.90
18450;DHT22;9354;50.194;7.690;2023-05-03T15:11:58;20.10;99.90
18450;DHT22;9354;50.194;7.690;2023-05-03T15:14:26;20.00;99.80
18450;DHT22;9354;50.194;7.690;2023-05-03T15:16:54;19.90;99.90
18450;DHT22;9354;50.194;7.690;2023-05-03T15:19:21;19.90;99.90
18450;DHT22;9354;50.194;7.690;2023-05-03T15:21:50;19.80;99.50
18450;DHT22;9354;50.194;7.690;2023-05-03T15:24:17;19.70;99.80
18450;DHT22;9354;50.194;7.690;2023-05-03T15:26:45;19.70;99.90
18450;DHT22;9354;50.194;7.690;2023-05-03T15:29:14;19.80;99.90
18450;DHT22;9354;50.194;7.690;2023-05-03T15:31:42;19.80;99.90
18450;DHT22;9354;50.194;7.690;2023-05-03T15:34:10;19.90;99.90
18450;DHT22;9354;50.194;7.690;2023-05-03T15:36:37;19.90;99.90
18450;DHT22;9354;50.194;7.690;2023-05-03T15:39:05;19.80;99.90
18450;DHT22;9354;50.194;7.690;2023-05-03T15:41:34;19.80;99.90
18450;DHT22;9354;50.194;7.690;2023-05-03T15:44:01;19.70;99.90
18450;DHT22;9354;50.194;7.690;2023-05-03T15:46:31;19.70;99.90
18450;DHT22;9354;50.194;7.690;2023-05-03T15:48:59;19.70;99.90
18450;DHT22;9354;50.194;7.690;2023-05-03T15:51:27;19.60;99.70
18450;DHT22;9354;50.194;7.690;2023-05-03T15:53:54;19.70;99.70
18450;DHT22;9354;50.194;7.690;2023-05-03T15:56:22;19.60;99.60
18450;DHT22;9354;50.194;7.690;2023-05-03T15:58:49;19.50;99.70
18450;DHT22;9354;50.194;7.690;2023-05-03T16:01:17;19.40;99.50
18450;DHT22;9354;50.194;7.690;2023-05-03T16:03:46;19.20;99.40